Startpagina
METAR-TAF:

METAR-TAF

Vliegvelden :

Luchthaven Odessa

Odessa, Oekraïne

breedte: 46-26N, lengte: 030-46E, hoogte: 42 m

Actueel weer

Dit bericht is 16 minuten geleden gemaakt, om 18:30 UTC
Weinig wind
Temperatuur 16°C
Vochtigheid 82%
Druk 1023 hPa
Zicht 10 km of meer
geen wolken onder 1500 m en geen cumulonimbus

METAR: UKOO 191830Z 00000MPS CAVOK 16/13 Q1023 R16/090060 NOSIG

Tijdstip: 21:46 (18:46 UTC)

Verwachting

Dit bericht is 1 uur en het 43 minuten geleden gemaakt, om 17:03 UTC
Verwachting geldig van 19 om 18 UTC tot 20 om 18 UTC
Wind 6 kt uit het zuiden
Zicht: 2100 m
Gebroken wolken op 700 ft
nevel, rook
Kans 40% :
Tijdelijke
van 19 om 18 UTC tot 20 om 05 UTC
Zicht: 0300 m
op 200 ft
mist
Wijzigt naar
van 20 om 05 UTC tot 20 om 06 UTC
Zicht: 6000 m

TAF: UKOO 191703Z 1918/2018 19003MPS 2100 BR FU BKN007 PROB40 TEMPO 1918/2005 0300 FG VV002 BECMG 2005/2006 6000 NSW

Waarnemingen en weersverwachtingen van meer dan 4000 vliegvelden (METAR en TAF).

De beschikbare stations zijn de gele en rode punten op de kaart.

Ga met uw muis naar het station om de naam te zien.

Klik dan om waarnemingen en weersverwachtingen te zien.

kaart wijzigen: klik op de groene knoppen met een zwart kruis om in te zoomen, op de groene knop met een streepje om uit te zoomen of op de groene pijlen voor aangrenzende kaarten.


METAR-TAF: